Terminal Aerodrome Forecast
Issued by NWS

Current Version | Previous Version | Graphics & Text | Print | Product List | Glossary On
Versions: 1 2 3 4 5 6 7 8 9 10 11 12 13 14 15 16 17 18
120
FTUS41 KILN 280530
TAFLUK
TAF
KLUK 280530Z 2806/2906 20003KT P6SM VCSH OVC050
      TEMPO 2806/2809 5SM -SHRA BR OVC018
     FM280900 32004KT 5SM BR VCSH OVC018
     FM281100 30005KT 5SM BR OVC011
     FM281400 33007KT P6SM OVC018
     FM290200 01005KT P6SM BKN025=

USA.gov is the U.S. government's official web portal to all federal, state and local government web resources and services.